Terminal Aerodrome Forecast
Issued by NWS

Home | Current Version | Previous Version | Text Only | Print | Product List | Glossary Off
Versions: 1 2 3 4 5 6 7 8 9 10 11 12 13 14 15 16 17 18 19 20 21 22

000
FTUS43 KBIS 291409 AAB
TAFJMS
TAF AMD
KJMS 291409Z 2914/3012 30008KT 5SM BR OVC006
     FM291445 30012KT P6SM FEW200
     FM300100 28007KT P6SM SKC
     FM300300 VRB03KT P6SM SKC=

USA.gov is the U.S. government's official web portal to all federal, state and local government web resources and services.